createdAt,value
2024-01-05T00:00:06.166Z,769.00
2024-01-05T00:01:06.114Z,770.00
2024-01-05T00:02:06.103Z,762.00
2024-01-05T00:03:06.189Z,771.00
2024-01-05T00:04:06.178Z,767.00
2024-01-05T00:05:06.109Z,775.00
2024-01-05T00:06:06.194Z,767.00
2024-01-05T00:07:06.133Z,761.00
2024-01-05T00:08:06.116Z,750.00
2024-01-05T00:09:06.159Z,767.00
2024-01-05T00:10:06.110Z,756.00
2024-01-05T00:11:06.131Z,752.00
2024-01-05T00:12:07.415Z,756.00
2024-01-05T00:13:06.113Z,750.00
2024-01-05T00:14:06.121Z,749.00
2024-01-05T00:15:06.171Z,759.00
2024-01-05T00:16:06.116Z,764.00
2024-01-05T00:17:06.114Z,753.00
2024-01-05T00:18:06.220Z,757.00
2024-01-05T00:19:06.349Z,748.00
2024-01-05T00:20:06.262Z,760.00
2024-01-05T00:21:06.199Z,760.00
2024-01-05T00:22:06.194Z,757.00
2024-01-05T00:23:06.192Z,758.00
2024-01-05T00:24:06.245Z,751.00
2024-01-05T00:25:06.205Z,745.00
2024-01-05T00:26:06.198Z,761.00
2024-01-05T00:27:06.223Z,746.00
2024-01-05T00:28:06.196Z,747.00
2024-01-05T00:29:06.218Z,747.00
2024-01-05T00:30:06.410Z,747.00
2024-01-05T00:31:06.468Z,747.00
2024-01-05T00:32:06.211Z,748.00
2024-01-05T00:33:06.305Z,748.00
2024-01-05T00:34:06.385Z,755.00
2024-01-05T00:35:06.230Z,747.00
2024-01-05T00:36:06.251Z,764.00
2024-01-05T00:37:06.229Z,753.00
2024-01-05T00:38:06.243Z,751.00
2024-01-05T00:39:06.330Z,751.00
2024-01-05T00:40:06.245Z,752.00
2024-01-05T00:41:06.265Z,739.00
2024-01-05T00:42:06.318Z,747.00
2024-01-05T00:43:06.255Z,753.00
2024-01-05T00:44:06.279Z,751.00
2024-01-05T00:45:06.286Z,756.00
2024-01-05T00:46:06.258Z,734.00
2024-01-05T00:47:06.264Z,745.00
2024-01-05T00:48:06.348Z,745.00
2024-01-05T00:49:06.374Z,740.00
2024-01-05T00:50:06.272Z,737.00
2024-01-05T00:51:06.287Z,743.00
2024-01-05T00:52:06.290Z,743.00
2024-01-05T00:53:06.291Z,748.00
2024-01-05T00:54:06.320Z,745.00
2024-01-05T00:55:06.349Z,744.00
2024-01-05T00:56:06.430Z,741.00
2024-01-05T00:57:07.904Z,739.00
2024-01-05T00:58:06.476Z,737.00
2024-01-05T00:59:06.463Z,742.00
2024-01-05T01:00:06.513Z,748.00
2024-01-05T01:01:06.513Z,746.00
2024-01-05T01:02:06.472Z,745.00
2024-01-05T01:03:06.576Z,733.00
2024-01-05T01:04:06.592Z,739.00
2024-01-05T01:05:06.520Z,740.00
2024-01-05T01:06:06.508Z,738.00
2024-01-05T01:07:06.456Z,739.00
2024-01-05T01:08:06.473Z,744.00
2024-01-05T01:09:06.524Z,744.00
2024-01-05T01:10:06.479Z,744.00
2024-01-05T01:11:06.489Z,738.00
2024-01-05T01:12:06.558Z,749.00
2024-01-05T01:13:06.496Z,744.00
2024-01-05T01:14:06.485Z,752.00
2024-01-05T01:15:06.505Z,744.00
2024-01-05T01:16:06.504Z,743.00
2024-01-05T01:17:06.493Z,744.00
2024-01-05T01:18:06.642Z,744.00
2024-01-05T01:19:06.774Z,746.00
2024-01-05T01:20:06.523Z,751.00
2024-01-05T01:21:06.568Z,744.00
2024-01-05T01:22:06.511Z,745.00
2024-01-05T01:23:06.505Z,748.00
2024-01-05T01:24:06.562Z,739.00
2024-01-05T01:25:06.514Z,743.00
2024-01-05T01:26:06.512Z,746.00
2024-01-05T01:27:06.576Z,732.00
2024-01-05T01:28:06.511Z,742.00
2024-01-05T01:29:06.501Z,738.00
2024-01-05T01:30:06.623Z,737.00
2024-01-05T01:31:06.695Z,745.00
2024-01-05T01:32:06.522Z,744.00
2024-01-05T01:33:06.616Z,743.00
2024-01-05T01:34:06.618Z,735.00
2024-01-05T01:35:06.543Z,737.00
2024-01-05T01:36:06.568Z,740.00
2024-01-05T01:37:06.517Z,739.00
2024-01-05T01:38:06.532Z,734.00
2024-01-05T01:39:06.606Z,745.00
2024-01-05T01:40:06.629Z,736.00
2024-01-05T01:41:06.574Z,730.00
2024-01-05T01:42:06.624Z,741.00
2024-01-05T01:43:06.612Z,736.00
2024-01-05T01:44:06.565Z,738.00
2024-01-05T01:45:06.570Z,727.00
2024-01-05T01:46:06.582Z,731.00
2024-01-05T01:47:06.555Z,733.00
2024-01-05T01:48:06.825Z,731.00
2024-01-05T01:49:06.722Z,719.00
2024-01-05T01:50:06.612Z,732.00
2024-01-05T01:51:06.647Z,733.00
2024-01-05T01:52:06.609Z,733.00
2024-01-05T01:53:06.608Z,727.00
2024-01-05T01:54:06.683Z,728.00
2024-01-05T01:55:06.637Z,729.00
2024-01-05T01:56:06.651Z,739.00
2024-01-05T01:57:06.636Z,715.00
2024-01-05T01:58:06.618Z,715.00
2024-01-05T01:59:06.639Z,723.00
2024-01-05T02:00:06.727Z,733.00
2024-01-05T02:01:06.691Z,734.00
2024-01-05T02:02:06.628Z,724.00
2024-01-05T02:03:06.844Z,733.00
2024-01-05T02:04:06.743Z,731.00
2024-01-05T02:05:06.700Z,734.00
2024-01-05T02:06:06.784Z,729.00
2024-01-05T02:07:06.659Z,708.00
2024-01-05T02:08:06.645Z,728.00
2024-01-05T02:09:06.702Z,720.00
2024-01-05T02:10:06.643Z,718.00
2024-01-05T02:11:06.653Z,727.00
2024-01-05T02:12:06.701Z,727.00
2024-01-05T02:13:06.637Z,727.00
2024-01-05T02:14:06.644Z,727.00
2024-01-05T02:15:06.679Z,724.00
2024-01-05T02:16:06.679Z,723.00
2024-01-05T02:17:06.656Z,726.00
2024-01-05T02:18:06.733Z,724.00
2024-01-05T02:19:06.754Z,726.00
2024-01-05T02:20:06.653Z,721.00
2024-01-05T02:21:06.688Z,721.00
2024-01-05T02:22:06.663Z,721.00
2024-01-05T02:23:06.669Z,721.00
2024-01-05T02:24:06.734Z,723.00
2024-01-05T02:25:06.659Z,722.00
2024-01-05T02:26:06.733Z,710.00
2024-01-05T02:27:06.694Z,725.00
2024-01-05T02:28:06.671Z,726.00
2024-01-05T02:29:06.702Z,724.00
2024-01-05T02:30:06.733Z,727.00
2024-01-05T02:31:06.783Z,715.00
2024-01-05T02:32:06.680Z,710.00
2024-01-05T02:33:06.813Z,720.00
2024-01-05T02:34:06.756Z,718.00
2024-01-05T02:35:06.775Z,711.00
2024-01-05T02:36:06.710Z,713.00
2024-01-05T02:37:06.693Z,712.00
2024-01-05T02:38:06.696Z,724.00
2024-01-05T02:39:06.736Z,719.00
2024-01-05T02:40:06.700Z,718.00
2024-01-05T02:41:06.703Z,714.00
2024-01-05T02:42:06.728Z,717.00
2024-01-05T02:43:06.710Z,708.00
2024-01-05T02:44:06.703Z,712.00
2024-01-05T02:45:06.716Z,713.00
2024-01-05T02:46:06.747Z,715.00
2024-01-05T02:47:06.714Z,712.00
2024-01-05T02:48:06.916Z,720.00
2024-01-05T02:49:06.856Z,721.00
2024-01-05T02:50:06.705Z,713.00
2024-01-05T02:51:06.792Z,710.00
2024-01-05T02:52:06.713Z,703.00
2024-01-05T02:53:06.718Z,709.00
2024-01-05T02:54:06.779Z,712.00
2024-01-05T02:55:06.717Z,697.00
2024-01-05T02:56:06.717Z,697.00
2024-01-05T02:57:06.762Z,700.00
2024-01-05T02:58:06.723Z,702.00
2024-01-05T02:59:06.708Z,702.00
2024-01-05T03:00:06.738Z,709.00
2024-01-05T03:01:06.778Z,715.00
2024-01-05T03:02:06.716Z,708.00
2024-01-05T03:03:07.009Z,709.00
2024-01-05T03:04:06.832Z,714.00
2024-01-05T03:05:06.742Z,713.00
2024-01-05T03:06:06.737Z,708.00
2024-01-05T03:07:06.724Z,711.00
2024-01-05T03:08:06.729Z,712.00
2024-01-05T03:09:06.784Z,704.00
2024-01-05T03:10:06.757Z,706.00
2024-01-05T03:11:06.736Z,709.00
2024-01-05T03:12:06.859Z,702.00
2024-01-05T03:13:06.735Z,707.00
2024-01-05T03:14:06.737Z,702.00
2024-01-05T03:15:06.822Z,695.00
2024-01-05T03:16:06.751Z,701.00
2024-01-05T03:17:06.742Z,719.00
2024-01-05T03:18:06.963Z,730.00
2024-01-05T03:19:06.906Z,752.00
2024-01-05T03:20:06.803Z,753.00
2024-01-05T03:21:06.780Z,755.00
2024-01-05T03:22:06.760Z,754.00
2024-01-05T03:23:06.768Z,752.00
2024-01-05T03:24:06.847Z,749.00
2024-01-05T03:25:06.777Z,743.00
2024-01-05T03:26:06.771Z,741.00
2024-01-05T03:27:06.786Z,724.00
2024-01-05T03:28:06.771Z,730.00
2024-01-05T03:29:06.778Z,727.00
2024-01-05T03:30:06.895Z,709.00
2024-01-05T03:31:06.842Z,700.00
2024-01-05T03:32:06.801Z,691.00
2024-01-05T03:33:06.902Z,679.00
2024-01-05T03:34:06.952Z,665.00
2024-01-05T03:35:06.784Z,659.00
2024-01-05T03:36:06.899Z,655.00
2024-01-05T03:37:06.800Z,655.00
2024-01-05T03:38:06.784Z,655.00
2024-01-05T03:39:06.845Z,651.00
2024-01-05T03:40:06.784Z,652.00
2024-01-05T03:41:06.821Z,647.00
2024-01-05T03:42:06.897Z,646.00
2024-01-05T03:43:06.872Z,642.00
2024-01-05T03:44:06.914Z,637.00
2024-01-05T03:45:06.964Z,634.00
2024-01-05T03:46:06.916Z,632.00
2024-01-05T03:47:06.916Z,626.00
2024-01-05T03:48:06.994Z,621.00
2024-01-05T03:49:06.990Z,618.00
2024-01-05T03:50:06.920Z,617.00
2024-01-05T03:51:06.956Z,617.00
2024-01-05T03:52:06.925Z,621.00
2024-01-05T03:53:06.933Z,621.00
2024-01-05T03:54:06.958Z,618.00
2024-01-05T03:55:06.919Z,619.00
2024-01-05T03:56:06.944Z,614.00
2024-01-05T03:57:06.957Z,613.00
2024-01-05T03:58:06.914Z,613.00
2024-01-05T03:59:06.941Z,613.00
2024-01-05T04:00:06.987Z,612.00
2024-01-05T04:01:06.987Z,609.00
2024-01-05T04:02:06.944Z,608.00
2024-01-05T04:03:07.061Z,605.00
2024-01-05T04:04:07.045Z,602.00
2024-01-05T04:05:06.969Z,601.00
2024-01-05T04:06:07.040Z,602.00
2024-01-05T04:07:07.010Z,600.00
2024-01-05T04:08:07.033Z,601.00
2024-01-05T04:09:07.107Z,600.00
2024-01-05T04:10:07.096Z,602.00
2024-01-05T04:11:07.154Z,602.00
2024-01-05T04:12:07.193Z,600.00
2024-01-05T04:13:07.126Z,594.00
2024-01-05T04:14:07.207Z,601.00
2024-01-05T04:15:07.167Z,594.00
2024-01-05T04:16:07.145Z,596.00
2024-01-05T04:17:07.148Z,602.00
2024-01-05T04:18:07.314Z,600.00
2024-01-05T04:19:07.301Z,596.00
2024-01-05T04:20:07.164Z,600.00
2024-01-05T04:21:07.247Z,599.00
2024-01-05T04:22:14.415Z,600.00
2024-01-05T04:23:14.407Z,600.00
2024-01-05T04:24:14.430Z,600.00
2024-01-05T04:25:14.413Z,600.00
2024-01-05T04:26:14.421Z,600.00
2024-01-05T04:27:14.436Z,603.00
2024-01-05T04:28:14.416Z,603.00
2024-01-05T04:29:14.421Z,600.00
2024-01-05T04:30:14.543Z,604.00
2024-01-05T04:31:21.883Z,600.00
2024-01-05T04:32:21.786Z,600.00
2024-01-05T04:33:21.957Z,600.00
2024-01-05T04:34:21.835Z,600.00
2024-01-05T04:35:21.786Z,600.00
2024-01-05T04:36:21.955Z,600.00
2024-01-05T04:37:21.795Z,600.00
2024-01-05T04:38:21.801Z,600.00
2024-01-05T04:39:21.813Z,600.00
2024-01-05T04:40:21.810Z,600.00
2024-01-05T04:41:21.801Z,598.00
2024-01-05T04:42:21.810Z,596.00
2024-01-05T04:43:21.800Z,597.00
2024-01-05T04:44:21.808Z,596.00
2024-01-05T04:45:21.856Z,594.00
2024-01-05T04:46:21.804Z,592.00
2024-01-05T04:47:21.826Z,600.00
2024-01-05T04:48:21.924Z,603.00
2024-01-05T04:49:21.872Z,602.00
2024-01-05T04:50:21.824Z,602.00
2024-01-05T04:51:21.855Z,602.00
2024-01-05T04:52:21.819Z,602.00
2024-01-05T04:53:21.816Z,604.00
2024-01-05T04:54:21.897Z,606.00
2024-01-05T04:55:21.823Z,605.00
2024-01-05T04:56:21.823Z,603.00
2024-01-05T04:57:21.884Z,601.00
2024-01-05T04:58:21.850Z,601.00
2024-01-05T04:59:21.862Z,603.00
2024-01-05T05:00:21.973Z,604.00
2024-01-05T05:01:22.048Z,602.00
2024-01-05T05:02:22.070Z,607.00
2024-01-05T05:03:22.216Z,606.00
2024-01-05T05:04:22.192Z,603.00
2024-01-05T05:05:22.294Z,604.00
2024-01-05T05:06:22.403Z,601.00
2024-01-05T05:07:22.361Z,602.00
2024-01-05T05:08:22.373Z,600.00
2024-01-05T05:09:22.418Z,600.00
2024-01-05T05:10:22.384Z,602.00
2024-01-05T05:11:22.651Z,601.00
2024-01-05T05:12:22.417Z,603.00
2024-01-05T05:13:22.378Z,600.00
2024-01-05T05:14:22.378Z,605.00
2024-01-05T05:15:22.467Z,605.00
2024-01-05T05:16:22.765Z,605.00
2024-01-05T05:17:22.517Z,605.00
2024-01-05T05:18:22.456Z,602.00
2024-01-05T05:19:22.522Z,605.00
2024-01-05T05:20:22.414Z,605.00
2024-01-05T05:21:23.035Z,605.00
2024-01-05T05:22:22.461Z,603.00
2024-01-05T05:23:22.399Z,603.00
2024-01-05T05:24:22.428Z,603.00
2024-01-05T05:25:22.422Z,603.00
2024-01-05T05:26:22.883Z,601.00
2024-01-05T05:27:22.416Z,603.00
2024-01-05T05:28:22.412Z,598.00
2024-01-05T05:29:22.406Z,602.00
2024-01-05T05:30:22.516Z,606.00
2024-01-05T05:31:22.860Z,602.00
2024-01-05T05:32:22.450Z,602.00
2024-01-05T05:33:22.515Z,602.00
2024-01-05T05:34:22.558Z,602.00
2024-01-05T05:35:22.414Z,602.00
2024-01-05T05:36:22.446Z,603.00
2024-01-05T05:37:22.512Z,602.00
2024-01-05T05:38:22.418Z,603.00
2024-01-05T05:39:22.457Z,605.00
2024-01-05T05:40:22.426Z,600.00
2024-01-05T05:41:22.431Z,606.00
2024-01-05T05:42:22.429Z,605.00
2024-01-05T05:43:22.430Z,603.00
2024-01-05T05:44:22.428Z,604.00
2024-01-05T05:45:22.495Z,602.00
2024-01-05T05:46:23.337Z,602.00
2024-01-05T05:47:22.533Z,602.00
2024-01-05T05:48:22.732Z,604.00
2024-01-05T05:49:22.676Z,610.00
2024-01-05T05:50:22.633Z,605.00
2024-01-05T05:51:24.398Z,605.00
2024-01-05T05:52:22.758Z,606.00
2024-01-05T05:53:22.820Z,608.00
2024-01-05T05:54:22.897Z,606.00
2024-01-05T05:55:22.960Z,608.00
2024-01-05T05:56:23.061Z,603.00
2024-01-05T05:57:23.239Z,603.00
2024-01-05T05:58:23.144Z,603.00
2024-01-05T05:59:23.057Z,603.00
2024-01-05T06:00:23.088Z,604.00
2024-01-05T06:01:23.100Z,607.00
2024-01-05T06:02:23.077Z,608.00
2024-01-05T06:03:23.140Z,608.00
2024-01-05T06:04:23.092Z,608.00
2024-01-05T06:05:23.135Z,607.00
2024-01-05T06:06:23.297Z,609.00
2024-01-05T06:07:23.067Z,607.00
2024-01-05T06:08:23.071Z,608.00
2024-01-05T06:09:23.111Z,609.00
2024-01-05T06:10:23.079Z,606.00
2024-01-05T06:11:25.221Z,606.00
2024-01-05T06:12:23.120Z,606.00
2024-01-05T06:13:23.085Z,609.00
2024-01-05T06:14:23.095Z,609.00
2024-01-05T06:15:23.127Z,606.00
2024-01-05T06:16:23.100Z,609.00
2024-01-05T06:17:23.089Z,608.00
2024-01-05T06:18:23.244Z,608.00
2024-01-05T06:19:23.150Z,608.00
2024-01-05T06:20:23.107Z,609.00
2024-01-05T06:21:23.169Z,608.00
2024-01-05T06:22:23.139Z,610.00
2024-01-05T06:23:23.113Z,608.00
2024-01-05T06:24:23.157Z,608.00
2024-01-05T06:25:23.122Z,609.00
2024-01-05T06:26:23.121Z,609.00
2024-01-05T06:27:32.558Z,610.00
2024-01-05T06:28:27.776Z,608.00
2024-01-05T06:29:23.129Z,608.00
2024-01-05T06:30:23.181Z,608.00
2024-01-05T06:31:23.189Z,608.00
2024-01-05T06:32:23.130Z,610.00
2024-01-05T06:33:23.260Z,611.00
2024-01-05T06:34:23.199Z,613.00
2024-01-05T06:35:23.151Z,608.00
2024-01-05T06:36:23.215Z,609.00
2024-01-05T06:37:23.159Z,611.00
2024-01-05T06:38:23.145Z,613.00
2024-01-05T06:39:23.237Z,613.00
2024-01-05T06:40:23.156Z,611.00
2024-01-05T06:41:23.152Z,612.00
2024-01-05T06:42:23.271Z,610.00
2024-01-05T06:43:23.169Z,610.00
2024-01-05T06:44:23.150Z,615.00
2024-01-05T06:45:23.169Z,612.00
2024-01-05T06:46:23.157Z,615.00
2024-01-05T06:47:23.154Z,609.00
2024-01-05T06:48:23.412Z,610.00
2024-01-05T06:49:23.287Z,609.00
2024-01-05T06:50:23.355Z,608.00
2024-01-05T06:51:23.175Z,610.00
2024-01-05T06:52:23.157Z,611.00
2024-01-05T06:53:23.166Z,609.00
2024-01-05T06:54:23.204Z,610.00
2024-01-05T06:55:23.173Z,610.00
2024-01-05T06:56:23.186Z,608.00
2024-01-05T06:57:23.201Z,610.00
2024-01-05T06:58:23.183Z,610.00
2024-01-05T06:59:23.188Z,610.00
2024-01-05T07:00:23.190Z,610.00
2024-01-05T07:01:23.196Z,608.00
2024-01-05T07:02:23.181Z,608.00
2024-01-05T07:03:23.280Z,608.00
2024-01-05T07:04:23.197Z,607.00
2024-01-05T07:05:23.250Z,606.00
2024-01-05T07:06:23.229Z,609.00
2024-01-05T07:07:23.186Z,608.00
2024-01-05T07:08:23.193Z,606.00
2024-01-05T07:09:23.215Z,605.00
2024-01-05T07:10:23.203Z,607.00
2024-01-05T07:11:23.283Z,606.00
2024-01-05T07:12:23.245Z,608.00
2024-01-05T07:13:23.199Z,608.00
2024-01-05T07:14:23.204Z,608.00
2024-01-05T07:15:23.246Z,606.00
2024-01-05T07:16:23.218Z,608.00
2024-01-05T07:17:23.280Z,605.00
2024-01-05T07:18:23.322Z,604.00
2024-01-05T07:19:23.360Z,603.00
2024-01-05T07:20:23.216Z,605.00
2024-01-05T07:21:23.309Z,601.00
2024-01-05T07:22:23.215Z,603.00
2024-01-05T07:23:23.222Z,603.00
2024-01-05T07:24:23.244Z,604.00
2024-01-05T07:25:23.247Z,607.00
2024-01-05T07:26:23.240Z,602.00
2024-01-05T07:27:23.261Z,605.00
2024-01-05T07:28:23.250Z,603.00
2024-01-05T07:29:23.232Z,605.00
2024-01-05T07:30:23.497Z,607.00
2024-01-05T07:31:23.333Z,607.00
2024-01-05T07:32:23.250Z,605.00
2024-01-05T07:33:23.346Z,607.00
2024-01-05T07:34:23.415Z,606.00
2024-01-05T07:35:23.262Z,606.00
2024-01-05T07:36:23.269Z,609.00
2024-01-05T07:37:23.244Z,607.00
2024-01-05T07:38:23.246Z,606.00
2024-01-05T07:39:23.312Z,607.00
2024-01-05T07:40:23.255Z,606.00
2024-01-05T07:41:23.270Z,608.00
2024-01-05T07:42:23.313Z,606.00
2024-01-05T07:43:23.272Z,607.00
2024-01-05T07:44:23.262Z,606.00
2024-01-05T07:45:23.286Z,603.00
2024-01-05T07:46:23.705Z,600.00
2024-01-05T07:47:23.271Z,600.00
2024-01-05T07:48:23.406Z,600.00
2024-01-05T07:49:23.396Z,600.00
2024-01-05T07:50:23.293Z,599.00
2024-01-05T07:51:23.310Z,597.00
2024-01-05T07:52:23.280Z,599.00
2024-01-05T07:53:23.290Z,602.00
2024-01-05T07:54:23.329Z,603.00
2024-01-05T07:55:23.303Z,603.00
2024-01-05T07:56:23.298Z,603.00
2024-01-05T07:57:23.359Z,604.00
2024-01-05T07:58:23.303Z,605.00
2024-01-05T07:59:23.313Z,604.00
2024-01-05T08:00:23.336Z,606.00
2024-01-05T08:01:23.343Z,607.00
2024-01-05T08:02:23.305Z,605.00
2024-01-05T08:03:23.455Z,605.00
2024-01-05T08:04:23.358Z,605.00
2024-01-05T08:05:23.327Z,606.00
2024-01-05T08:06:23.416Z,606.00
2024-01-05T08:07:23.310Z,606.00
2024-01-05T08:08:23.307Z,606.00
2024-01-05T08:09:23.390Z,598.00
2024-01-05T08:10:23.313Z,603.00
2024-01-05T08:11:23.325Z,605.00
2024-01-05T08:12:23.376Z,601.00
2024-01-05T08:13:23.347Z,601.00
2024-01-05T08:14:23.315Z,602.00
2024-01-05T08:15:23.360Z,601.00
2024-01-05T08:16:23.323Z,602.00
2024-01-05T08:17:23.334Z,602.00
2024-01-05T08:18:23.414Z,603.00
2024-01-05T08:19:23.503Z,602.00
2024-01-05T08:20:23.341Z,605.00
2024-01-05T08:21:23.370Z,605.00
2024-01-05T08:22:23.322Z,600.00
2024-01-05T08:23:23.325Z,602.00
2024-01-05T08:24:23.356Z,606.00
2024-01-05T08:25:24.351Z,608.00
2024-01-05T08:26:23.368Z,608.00
2024-01-05T08:27:23.386Z,604.00
2024-01-05T08:28:23.331Z,602.00
2024-01-05T08:29:23.339Z,608.00
2024-01-05T08:30:23.434Z,600.00
2024-01-05T08:31:23.463Z,606.00
2024-01-05T08:32:23.412Z,604.00
2024-01-05T08:33:23.445Z,604.00
2024-01-05T08:34:23.432Z,609.00
2024-01-05T08:35:23.348Z,613.00
2024-01-05T08:36:23.483Z,614.00
2024-01-05T08:37:23.407Z,613.00
2024-01-05T08:38:23.425Z,612.00
2024-01-05T08:39:23.470Z,612.00
2024-01-05T08:40:23.483Z,609.00
2024-01-05T08:41:23.852Z,609.00
2024-01-05T08:42:23.618Z,610.00
2024-01-05T08:43:23.625Z,611.00
2024-01-05T08:44:23.634Z,611.00
2024-01-05T08:45:23.698Z,611.00
2024-01-05T08:52:23.667Z,611.00
2024-01-05T08:53:23.680Z,615.00
2024-01-05T08:54:23.699Z,620.00
2024-01-05T08:55:23.676Z,628.00
2024-01-05T08:56:25.517Z,632.00
2024-01-05T08:57:23.738Z,612.00
2024-01-05T08:58:23.683Z,612.00
2024-01-05T08:59:23.699Z,612.00
2024-01-05T09:00:23.745Z,616.00
2024-01-05T09:01:24.041Z,611.00
2024-01-05T09:02:23.711Z,612.00
2024-01-05T09:03:23.752Z,617.00
2024-01-05T09:04:23.732Z,618.00
2024-01-05T09:05:23.726Z,625.00
2024-01-05T09:06:23.815Z,621.00
2024-01-05T09:07:23.699Z,621.00
2024-01-05T09:08:23.691Z,618.00
2024-01-05T09:09:23.748Z,615.00
2024-01-05T09:10:23.734Z,615.00
2024-01-05T09:11:23.705Z,613.00
2024-01-05T09:12:23.757Z,614.00
2024-01-05T09:13:23.730Z,611.00
2024-01-05T09:14:23.703Z,610.00
2024-01-05T09:15:23.726Z,611.00
2024-01-05T09:16:23.720Z,610.00
2024-01-05T09:17:23.750Z,613.00
2024-01-05T09:18:23.876Z,622.00
2024-01-05T09:19:25.994Z,628.00
2024-01-05T09:20:23.708Z,636.00
2024-01-05T09:21:23.743Z,643.00
2024-01-05T09:22:23.723Z,653.00
2024-01-05T09:23:23.731Z,658.00
2024-01-05T09:24:23.749Z,664.00
2024-01-05T09:25:23.731Z,678.00
2024-01-05T09:26:23.740Z,698.00
2024-01-05T09:27:23.763Z,719.00
2024-01-05T09:28:23.723Z,733.00
2024-01-05T09:29:23.733Z,755.00
2024-01-05T09:30:23.786Z,772.00
2024-01-05T09:31:23.824Z,789.00
2024-01-05T09:32:23.814Z,773.00
2024-01-05T09:33:23.848Z,774.00
2024-01-05T09:34:23.807Z,777.00
2024-01-05T09:35:23.731Z,785.00
2024-01-05T09:36:23.815Z,798.00
2024-01-05T09:37:23.737Z,775.00
2024-01-05T09:38:23.755Z,782.00
2024-01-05T09:39:23.778Z,798.00
2024-01-05T09:40:23.753Z,824.00
2024-01-05T09:41:23.777Z,856.00
2024-01-05T09:42:23.772Z,860.00
2024-01-05T09:43:23.762Z,867.00
2024-01-05T09:44:23.754Z,875.00
2024-01-05T09:45:23.803Z,871.00
2024-01-05T09:46:23.779Z,875.00
2024-01-05T09:47:23.776Z,886.00
2024-01-05T09:48:30.234Z,901.00
2024-01-05T09:49:24.932Z,895.00
2024-01-05T09:50:23.884Z,897.00
2024-01-05T09:51:23.793Z,901.00
2024-01-05T09:52:23.765Z,904.00
2024-01-05T09:53:23.776Z,910.00
2024-01-05T09:54:23.798Z,918.00
2024-01-05T09:55:23.780Z,922.00
2024-01-05T09:56:23.803Z,946.00
2024-01-05T09:57:23.854Z,944.00
2024-01-05T09:58:23.766Z,935.00
2024-01-05T09:59:23.774Z,942.00
2024-01-05T10:00:23.830Z,947.00
2024-01-05T10:01:23.795Z,949.00
2024-01-05T10:02:23.811Z,943.00
2024-01-05T10:03:23.847Z,938.00
2024-01-05T10:04:23.852Z,938.00
2024-01-05T10:05:23.816Z,941.00
2024-01-05T10:06:23.838Z,942.00
2024-01-05T10:07:23.795Z,952.00
2024-01-05T10:08:23.799Z,953.00
2024-01-05T10:09:23.970Z,956.00
2024-01-05T10:10:23.805Z,962.00
2024-01-05T10:11:23.818Z,959.00
2024-01-05T10:12:23.843Z,965.00
2024-01-05T10:13:23.802Z,980.00
2024-01-05T10:14:23.807Z,967.00
2024-01-05T10:15:23.821Z,971.00
2024-01-05T10:16:23.833Z,987.00
2024-01-05T10:17:23.799Z,975.00
2024-01-05T10:18:26.000Z,986.00
2024-01-05T10:19:23.896Z,982.00
2024-01-05T10:20:23.807Z,976.00
2024-01-05T10:21:23.825Z,987.00
2024-01-05T10:22:23.817Z,989.00
2024-01-05T10:23:23.812Z,991.00
2024-01-05T10:24:24.653Z,991.00
2024-01-05T10:25:23.839Z,983.00
2024-01-05T10:26:23.828Z,981.00
2024-01-05T10:27:23.862Z,989.00
2024-01-05T10:28:23.826Z,990.00
2024-01-05T10:29:23.832Z,984.00
2024-01-05T10:30:23.906Z,991.00
2024-01-05T10:31:23.862Z,999.00
2024-01-05T10:32:23.817Z,999.00
2024-01-05T10:33:23.913Z,993.00
2024-01-05T10:34:23.890Z,1000.00
2024-01-05T10:35:23.836Z,1000.00
2024-01-05T10:36:23.911Z,1006.00
2024-01-05T10:37:23.851Z,1002.00
2024-01-05T10:38:23.851Z,995.00
2024-01-05T10:39:23.898Z,1002.00
2024-01-05T10:40:23.836Z,1003.00
2024-01-05T10:41:23.850Z,1000.00
2024-01-05T10:42:24.126Z,1002.00
2024-01-05T10:43:23.860Z,1007.00
2024-01-05T10:44:23.861Z,1004.00
2024-01-05T10:45:23.905Z,1004.00
2024-01-05T10:46:23.877Z,1008.00
2024-01-05T10:47:23.845Z,1000.00
2024-01-05T10:48:23.990Z,999.00
2024-01-05T10:49:23.949Z,1003.00
2024-01-05T10:50:23.881Z,1003.00
2024-01-05T10:51:23.921Z,1005.00
2024-01-05T10:52:23.877Z,997.00
2024-01-05T10:53:23.876Z,1005.00
2024-01-05T10:54:23.921Z,1001.00
2024-01-05T10:55:23.847Z,990.00
2024-01-05T10:56:23.862Z,1006.00
2024-01-05T10:57:23.935Z,999.00
2024-01-05T10:58:23.874Z,1000.00
2024-01-05T10:59:23.858Z,1002.00
2024-01-05T11:00:23.943Z,1006.00
2024-01-05T11:01:23.885Z,994.00
2024-01-05T11:02:23.922Z,989.00
2024-01-05T11:03:23.889Z,994.00
2024-01-05T11:04:23.939Z,993.00
2024-01-05T11:05:23.854Z,989.00
2024-01-05T11:06:23.946Z,993.00
2024-01-05T11:07:23.953Z,990.00
2024-01-05T11:08:23.877Z,996.00
2024-01-05T11:09:23.894Z,997.00
2024-01-05T11:10:23.855Z,987.00
2024-01-05T11:11:23.882Z,987.00
2024-01-05T11:12:23.907Z,983.00
2024-01-05T11:13:23.865Z,978.00
2024-01-05T11:14:23.893Z,984.00
2024-01-05T11:15:24.030Z,992.00
2024-01-05T11:16:23.889Z,981.00
2024-01-05T11:17:23.901Z,999.00
2024-01-05T11:18:24.009Z,986.00
2024-01-05T11:19:23.951Z,979.00
2024-01-05T11:20:23.886Z,984.00
2024-01-05T11:21:23.929Z,981.00
2024-01-05T11:22:23.889Z,979.00
2024-01-05T11:23:23.886Z,984.00
2024-01-05T11:24:23.903Z,984.00
2024-01-05T11:25:23.968Z,985.00
2024-01-05T11:26:23.909Z,978.00
2024-01-05T11:27:23.981Z,978.00
2024-01-05T11:28:23.893Z,980.00
2024-01-05T11:29:23.911Z,979.00
2024-01-05T11:30:24.141Z,983.00
2024-01-05T11:31:24.092Z,978.00
2024-01-05T11:32:23.962Z,978.00
2024-01-05T11:33:30.019Z,978.00
2024-01-05T11:34:24.083Z,978.00
2024-01-05T11:35:23.921Z,978.00
2024-01-05T11:36:23.953Z,980.00
2024-01-05T11:37:23.917Z,980.00
2024-01-05T11:38:23.938Z,977.00
2024-01-05T11:39:24.000Z,979.00
2024-01-05T11:40:23.937Z,978.00
2024-01-05T11:41:23.969Z,978.00
2024-01-05T11:42:23.966Z,980.00
2024-01-05T11:43:23.940Z,971.00
2024-01-05T11:44:23.936Z,966.00
2024-01-05T11:45:23.967Z,982.00
2024-01-05T11:46:26.136Z,980.00
2024-01-05T11:47:23.974Z,975.00
2024-01-05T11:48:24.045Z,980.00
2024-01-05T11:49:23.969Z,978.00
2024-01-05T11:50:23.939Z,976.00
2024-01-05T11:51:23.985Z,973.00
2024-01-05T11:52:24.352Z,960.00
2024-01-05T11:53:23.972Z,973.00
2024-01-05T11:54:24.004Z,970.00
2024-01-05T11:55:23.949Z,967.00
2024-01-05T11:56:24.007Z,965.00
2024-01-05T11:57:23.976Z,975.00
2024-01-05T11:58:23.947Z,963.00
2024-01-05T11:59:23.961Z,970.00
2024-01-05T12:00:24.023Z,969.00
2024-01-05T12:01:23.994Z,951.00
2024-01-05T12:02:23.975Z,954.00
2024-01-05T12:03:24.045Z,966.00
2024-01-05T12:04:24.063Z,966.00
2024-01-05T12:05:24.015Z,967.00
2024-01-05T12:06:24.009Z,957.00
2024-01-05T12:07:23.963Z,966.00
2024-01-05T12:08:23.966Z,966.00
2024-01-05T12:09:24.007Z,969.00
2024-01-05T12:10:23.991Z,964.00
2024-01-05T12:11:23.991Z,961.00
2024-01-05T12:12:24.012Z,956.00
2024-01-05T12:13:23.987Z,950.00
2024-01-05T12:14:23.996Z,960.00
2024-01-05T12:15:24.009Z,964.00
2024-01-05T12:16:24.039Z,957.00
2024-01-05T12:17:24.026Z,958.00
2024-01-05T12:18:31.286Z,965.00
2024-01-05T12:19:25.172Z,965.00
2024-01-05T12:20:24.130Z,961.00
2024-01-05T12:21:24.104Z,955.00
2024-01-05T12:22:24.004Z,955.00
2024-01-05T12:23:23.999Z,954.00
2024-01-05T12:24:24.041Z,963.00
2024-01-05T12:25:24.013Z,951.00
2024-01-05T12:26:24.107Z,960.00
2024-01-05T12:27:24.035Z,940.00
2024-01-05T12:28:24.046Z,940.00
2024-01-05T12:29:24.043Z,940.00
2024-01-05T12:30:24.071Z,940.00
2024-01-05T12:31:24.337Z,942.00
2024-01-05T12:32:24.018Z,945.00
2024-01-05T12:33:24.118Z,948.00